createdAt,value
2018-06-30T00:00:07.884Z,34.40
2018-06-30T00:04:11.768Z,28.20
2018-06-30T00:08:15.681Z,29.03
2018-06-30T00:12:19.551Z,28.50
2018-06-30T00:16:23.451Z,27.30
2018-06-30T00:20:27.336Z,35.23
2018-06-30T00:24:31.240Z,34.67
2018-06-30T00:28:35.104Z,32.60
2018-06-30T00:32:41.917Z,35.27
2018-06-30T00:36:45.792Z,35.03
2018-06-30T00:40:49.707Z,31.93
2018-06-30T00:44:53.552Z,32.87
2018-06-30T00:48:57.279Z,31.70
2018-06-30T00:53:01.121Z,39.30
2018-06-30T00:57:05.034Z,34.30
2018-06-30T01:01:08.915Z,33.90
2018-06-30T01:05:12.791Z,37.03
2018-06-30T01:09:16.764Z,38.73
2018-06-30T01:13:20.628Z,31.67
2018-06-30T01:17:24.563Z,35.87
2018-06-30T01:21:28.443Z,29.77
2018-06-30T01:25:32.363Z,40.57
2018-06-30T01:29:36.252Z,36.70
2018-06-30T01:33:40.119Z,31.53
2018-06-30T01:37:43.984Z,32.43
2018-06-30T01:41:47.852Z,29.90
2018-06-30T01:45:51.744Z,31.03
2018-06-30T01:49:55.667Z,28.60
2018-06-30T01:53:59.531Z,27.53
2018-06-30T01:58:03.400Z,26.53
2018-06-30T02:02:07.264Z,31.40
2018-06-30T02:06:11.145Z,30.30
2018-06-30T02:10:15.099Z,26.00
2018-06-30T02:14:18.995Z,26.17
2018-06-30T02:18:22.844Z,26.93
2018-06-30T02:22:26.715Z,26.47
2018-06-30T02:26:30.596Z,22.10
2018-06-30T02:30:34.464Z,21.20
2018-06-30T02:34:38.118Z,22.70
2018-06-30T02:38:41.852Z,30.63
2018-06-30T02:42:45.721Z,20.43
2018-06-30T02:46:49.591Z,21.77
2018-06-30T02:50:53.533Z,20.20
2018-06-30T02:54:57.765Z,18.90
2018-06-30T02:59:01.645Z,18.97
2018-06-30T03:03:05.643Z,18.30
2018-06-30T03:07:09.516Z,17.70
2018-06-30T03:11:13.424Z,19.53
2018-06-30T03:15:17.295Z,18.17
2018-06-30T03:19:21.196Z,15.27
2018-06-30T03:23:25.072Z,17.00
2018-06-30T03:27:28.953Z,16.50
2018-06-30T03:31:32.914Z,15.87
2018-06-30T03:35:36.697Z,15.50
2018-06-30T03:39:40.556Z,13.90
2018-06-30T03:43:44.439Z,13.30
2018-06-30T03:47:48.480Z,15.20
2018-06-30T03:51:52.368Z,11.43
2018-06-30T03:55:56.239Z,10.30
2018-06-30T04:00:00.116Z,11.87
2018-06-30T04:04:03.968Z,14.00
2018-06-30T04:08:07.829Z,11.70
2018-06-30T04:12:11.684Z,11.50
2018-06-30T04:16:15.548Z,8.33
2018-06-30T04:20:19.400Z,9.83
2018-06-30T04:24:23.254Z,9.53
2018-06-30T04:28:27.122Z,10.13
2018-06-30T04:32:30.992Z,9.63
2018-06-30T04:36:34.632Z,9.70
2018-06-30T04:40:38.396Z,7.50
2018-06-30T04:44:42.256Z,9.83
2018-06-30T04:48:46.311Z,11.90
2018-06-30T04:52:50.236Z,9.73
2018-06-30T04:56:54.107Z,7.70
2018-06-30T05:00:57.971Z,11.30
2018-06-30T05:05:01.829Z,9.00
2018-06-30T05:09:06.944Z,7.40
2018-06-30T05:13:10.900Z,5.90
2018-06-30T05:17:14.784Z,5.80
2018-06-30T05:21:18.644Z,4.90
2018-06-30T05:25:22.496Z,5.40
2018-06-30T05:29:26.344Z,5.30
2018-06-30T05:33:30.289Z,6.33
2018-06-30T05:37:34.056Z,5.40
2018-06-30T05:41:38.395Z,5.80
2018-06-30T05:45:42.312Z,6.00
2018-06-30T05:49:46.172Z,6.30
2018-06-30T05:53:50.070Z,6.13
2018-06-30T05:57:53.960Z,5.70
2018-06-30T06:01:57.838Z,6.90
2018-06-30T06:06:01.677Z,6.00
2018-06-30T06:10:05.632Z,6.13
2018-06-30T06:14:09.556Z,6.93
2018-06-30T06:18:13.416Z,4.83
2018-06-30T06:22:17.276Z,5.37
2018-06-30T06:26:21.144Z,5.77
2018-06-30T06:30:25.012Z,4.70
2018-06-30T06:34:28.946Z,3.60
2018-06-30T06:38:32.822Z,3.27
2018-06-30T06:42:36.688Z,2.70
2018-06-30T06:46:40.573Z,2.90
2018-06-30T06:50:44.443Z,2.20
2018-06-30T06:54:48.309Z,2.40
2018-06-30T06:58:52.247Z,1.97
2018-06-30T07:02:56.092Z,3.63
2018-06-30T07:06:59.973Z,2.20
2018-06-30T07:11:03.889Z,2.70
2018-06-30T07:15:07.760Z,2.00
2018-06-30T07:19:11.706Z,2.00
2018-06-30T07:23:15.523Z,2.10
2018-06-30T07:27:19.383Z,2.57
2018-06-30T07:31:23.257Z,2.73
2018-06-30T07:35:27.111Z,5.63
2018-06-30T07:39:30.957Z,1.90
2018-06-30T07:43:34.852Z,1.80
2018-06-30T07:47:38.693Z,1.60
2018-06-30T07:51:42.617Z,1.40
2018-06-30T07:55:46.472Z,19.23
2018-06-30T07:59:50.344Z,1.83
2018-06-30T08:03:54.197Z,1.70
2018-06-30T08:07:58.048Z,2.83
2018-06-30T08:12:01.933Z,6.23
2018-06-30T08:16:05.828Z,1.83
2018-06-30T08:20:09.780Z,1.80
2018-06-30T08:24:13.664Z,1.23
2018-06-30T08:28:18.088Z,1.00
2018-06-30T08:32:21.948Z,2.10
2018-06-30T08:36:25.865Z,1.60
2018-06-30T08:40:29.731Z,3.13
2018-06-30T08:44:33.639Z,2.90
2018-06-30T08:48:37.479Z,2.70
2018-06-30T08:52:41.344Z,1.37
2018-06-30T08:56:45.223Z,3.90
2018-06-30T09:00:49.095Z,1.23
2018-06-30T09:04:52.933Z,4.17
2018-06-30T09:08:59.183Z,2.63
2018-06-30T09:13:03.200Z,1.80
2018-06-30T09:17:07.097Z,1.27
2018-06-30T09:21:10.964Z,2.43
2018-06-30T09:25:14.610Z,1.43
2018-06-30T09:29:18.331Z,0.90
2018-06-30T09:33:22.184Z,0.90
2018-06-30T09:37:26.052Z,1.30
2018-06-30T09:41:29.896Z,1.03
2018-06-30T09:45:33.788Z,1.10
2018-06-30T09:49:37.696Z,0.77
2018-06-30T09:53:41.580Z,1.00
2018-06-30T09:57:45.511Z,1.23
2018-06-30T10:01:49.413Z,0.73
2018-06-30T10:05:53.380Z,0.80
2018-06-30T10:09:57.280Z,2.60
2018-06-30T10:14:01.181Z,2.40
2018-06-30T10:18:05.648Z,3.13
2018-06-30T10:22:09.639Z,1.67
2018-06-30T10:26:13.517Z,0.83
2018-06-30T10:30:17.364Z,1.97
2018-06-30T10:34:21.209Z,0.50
2018-06-30T10:38:25.056Z,1.13
2018-06-30T10:42:29.010Z,0.70
2018-06-30T10:46:32.861Z,0.53
2018-06-30T10:50:36.824Z,1.20
2018-06-30T10:54:40.656Z,0.77
2018-06-30T10:58:44.520Z,0.50
2018-06-30T11:02:48.369Z,1.80
2018-06-30T11:06:52.216Z,0.83
2018-06-30T11:10:56.113Z,0.50
2018-06-30T11:14:59.985Z,3.40
2018-06-30T11:19:03.856Z,0.50
2018-06-30T11:23:07.800Z,0.90
2018-06-30T11:27:11.688Z,0.60
2018-06-30T11:31:15.540Z,1.00
2018-06-30T11:35:19.407Z,0.70
2018-06-30T11:39:23.364Z,0.60
2018-06-30T11:43:27.416Z,1.00
2018-06-30T11:47:31.272Z,2.37
2018-06-30T11:51:35.192Z,1.90
2018-06-30T11:55:39.315Z,1.30
2018-06-30T11:59:43.200Z,1.53
2018-06-30T12:03:47.060Z,3.90
2018-06-30T12:07:51.024Z,1.97
2018-06-30T12:11:54.856Z,2.07
2018-06-30T12:15:58.761Z,0.50
2018-06-30T12:20:02.632Z,2.13
2018-06-30T12:24:06.476Z,2.10
2018-06-30T12:28:10.351Z,1.67
2018-06-30T12:32:14.276Z,1.70
2018-06-30T12:36:18.152Z,0.87
2018-06-30T12:40:22.025Z,1.40
2018-06-30T12:44:25.880Z,1.73
2018-06-30T12:48:29.776Z,3.50
2018-06-30T12:52:33.728Z,6.57
2018-06-30T12:56:37.596Z,1.60
2018-06-30T13:00:41.457Z,0.77
2018-06-30T13:04:45.324Z,1.50
2018-06-30T13:08:49.176Z,2.23
2018-06-30T13:12:52.884Z,0.57
2018-06-30T13:16:56.604Z,0.50
2018-06-30T13:21:00.448Z,1.47
2018-06-30T13:25:04.348Z,4.07
2018-06-30T13:29:08.199Z,0.90
2018-06-30T13:33:12.045Z,0.97
2018-06-30T13:37:15.915Z,0.60
2018-06-30T13:41:19.796Z,1.73
2018-06-30T13:45:23.692Z,5.23
2018-06-30T13:49:27.690Z,2.77
2018-06-30T13:53:31.528Z,0.60
2018-06-30T13:57:35.544Z,1.50
2018-06-30T14:01:40.069Z,0.50
2018-06-30T14:05:43.925Z,5.40
2018-06-30T14:09:47.792Z,0.87
2018-06-30T14:13:51.721Z,0.60
2018-06-30T14:17:55.628Z,1.30
2018-06-30T14:21:59.487Z,0.50
2018-06-30T14:26:03.361Z,2.10
2018-06-30T14:30:09.601Z,0.50
2018-06-30T14:34:13.464Z,1.00
2018-06-30T14:38:17.312Z,0.43
2018-06-30T14:42:21.763Z,0.47
2018-06-30T14:46:25.613Z,1.40
2018-06-30T14:50:29.525Z,0.73
2018-06-30T14:54:33.364Z,0.70
2018-06-30T14:58:37.252Z,0.70
2018-06-30T15:02:41.109Z,1.73
2018-06-30T15:06:45.054Z,1.97
2018-06-30T15:10:48.935Z,5.10
2018-06-30T15:14:52.912Z,1.30
2018-06-30T15:18:56.822Z,1.20
2018-06-30T15:23:00.756Z,1.00
2018-06-30T15:27:04.656Z,1.60
2018-06-30T15:31:08.448Z,0.77
2018-06-30T15:35:12.316Z,1.53
2018-06-30T15:39:16.164Z,1.77
2018-06-30T15:43:20.024Z,1.03
2018-06-30T15:47:23.884Z,2.60
2018-06-30T15:51:27.744Z,1.07
2018-06-30T15:55:31.620Z,1.50
2018-06-30T15:59:35.516Z,1.10
2018-06-30T16:03:39.407Z,1.93
2018-06-30T16:07:43.293Z,1.90
2018-06-30T16:11:47.218Z,3.73
2018-06-30T16:15:51.065Z,3.67
2018-06-30T16:19:54.932Z,2.00
2018-06-30T16:23:58.572Z,1.50
2018-06-30T16:28:02.308Z,0.50
2018-06-30T16:32:06.177Z,2.20
2018-06-30T16:36:10.073Z,1.23
2018-06-30T16:40:13.927Z,1.27
2018-06-30T16:44:17.818Z,1.27
2018-06-30T16:48:21.908Z,1.17
2018-06-30T16:52:25.751Z,2.27
2018-06-30T16:56:29.636Z,4.00
2018-06-30T17:00:36.042Z,1.60
2018-06-30T17:04:39.888Z,0.70
2018-06-30T17:08:43.784Z,1.53
2018-06-30T17:12:47.671Z,1.63
2018-06-30T17:16:51.614Z,1.23
2018-06-30T17:20:55.511Z,1.10
2018-06-30T17:24:59.540Z,10.03
2018-06-30T17:29:03.392Z,3.60
2018-06-30T17:33:07.277Z,0.80
2018-06-30T17:37:11.132Z,1.57
2018-06-30T17:41:15.053Z,1.60
2018-06-30T17:45:19.020Z,1.00
2018-06-30T17:49:22.923Z,0.77
2018-06-30T17:53:26.865Z,1.40
2018-06-30T17:57:30.745Z,1.90
2018-06-30T18:01:34.618Z,4.00
2018-06-30T18:05:38.491Z,2.93
2018-06-30T18:09:42.344Z,0.57
2018-06-30T18:13:46.219Z,0.77
2018-06-30T18:17:50.125Z,2.10
2018-06-30T18:21:54.061Z,1.53
2018-06-30T18:25:57.892Z,1.03
2018-06-30T18:30:01.753Z,1.10
2018-06-30T18:34:06.016Z,0.70
2018-06-30T18:38:09.904Z,0.90
2018-06-30T18:42:13.791Z,0.60
2018-06-30T18:46:17.751Z,0.63
2018-06-30T18:50:21.560Z,3.27
2018-06-30T18:54:25.434Z,1.67
2018-06-30T18:58:29.274Z,1.37
2018-06-30T19:02:33.441Z,0.60
2018-06-30T19:06:37.345Z,0.60
2018-06-30T19:10:41.209Z,0.87
2018-06-30T19:14:45.137Z,0.80
2018-06-30T19:18:49.820Z,1.63
2018-06-30T19:22:53.657Z,1.63
2018-06-30T19:26:57.642Z,1.10
2018-06-30T19:31:01.356Z,0.70
2018-06-30T19:35:05.152Z,1.23
2018-06-30T19:39:10.432Z,1.50
2018-06-30T19:43:14.288Z,0.80
2018-06-30T19:47:18.204Z,0.73
2018-06-30T19:51:22.072Z,1.10
2018-06-30T19:55:26.170Z,1.10
2018-06-30T19:59:30.841Z,1.87
2018-06-30T20:03:34.716Z,0.90
2018-06-30T20:07:43.911Z,1.07
2018-06-30T20:11:47.768Z,0.93
2018-06-30T20:15:51.630Z,1.27
2018-06-30T20:19:55.589Z,0.63
2018-06-30T20:23:59.424Z,4.67
2018-06-30T20:28:03.384Z,1.17
2018-06-30T20:32:07.204Z,1.10
2018-06-30T20:36:11.121Z,0.67
2018-06-30T20:40:14.972Z,0.60
2018-06-30T20:44:18.848Z,3.03
2018-06-30T20:48:22.696Z,0.90
2018-06-30T20:52:26.566Z,1.10
2018-06-30T20:56:30.455Z,3.33
2018-06-30T21:00:34.260Z,1.47
2018-06-30T21:04:38.148Z,1.83
2018-06-30T21:08:41.984Z,2.70
2018-06-30T21:12:45.937Z,1.73
2018-06-30T21:16:49.790Z,1.57
2018-06-30T21:20:53.663Z,4.80
2018-06-30T21:24:57.528Z,1.33
2018-06-30T21:29:01.376Z,1.63
2018-06-30T21:33:05.236Z,1.33
2018-06-30T21:37:09.101Z,0.90
2018-06-30T21:41:12.975Z,1.23
2018-06-30T21:45:16.850Z,1.43
2018-06-30T21:49:20.940Z,3.97
2018-06-30T21:53:24.772Z,6.30
2018-06-30T21:57:28.625Z,1.57
2018-06-30T22:01:32.524Z,1.33
2018-06-30T22:05:36.408Z,2.60
2018-06-30T22:09:40.180Z,1.00
2018-06-30T22:13:43.917Z,1.77
2018-06-30T22:17:47.781Z,1.27
2018-06-30T22:21:51.644Z,1.53
2018-06-30T22:25:55.500Z,1.60
2018-06-30T22:29:59.367Z,1.17
2018-06-30T22:34:03.229Z,1.00
2018-06-30T22:38:07.179Z,1.20
2018-06-30T22:42:11.021Z,1.10
2018-06-30T22:46:14.656Z,1.23
2018-06-30T22:50:18.939Z,1.00
2018-06-30T22:54:22.865Z,1.50
2018-06-30T22:58:26.432Z,2.63
2018-06-30T23:02:30.171Z,5.37
2018-06-30T23:06:34.028Z,2.97
2018-06-30T23:10:38.058Z,1.23
2018-06-30T23:14:41.917Z,4.30
2018-06-30T23:18:45.775Z,1.30
2018-06-30T23:22:56.460Z,1.57
2018-06-30T23:27:00.353Z,1.50
2018-06-30T23:31:04.293Z,2.33
2018-06-30T23:35:08.259Z,1.20
2018-06-30T23:39:12.109Z,1.40
2018-06-30T23:43:15.963Z,2.10
2018-06-30T23:47:19.925Z,2.30
2018-06-30T23:51:23.760Z,1.63
2018-06-30T23:55:27.652Z,2.07
2018-06-30T23:59:31.511Z,1.60
